Fountain Green, UT (84632)

19:34 MDT le 22 août 2014 (GMT -0600)
Carbon County | Change Station
CLOSE
Current Station
Aéroport
Location: Price,
Altitude: 5955 ft
Stations météo à proximité

Alt. 5955 ft 39.61 °N, 110.75 °W | Updated 41 minutes ago

Clear
Ciel dégagé
69 ° F
Paraît 69 ° F
N
10
Vent Variable Vent de ENE

Aujourd'hui
Haut(e) -- | Bas -- ° F
--% Risque de précip.
Hier
Haut(e) -- | Bas -- ° F
Precip. -- pouce
6:45 AM 8:12 PM
Lune descendante, 6% visible
Pression 29.84 pouce
Visibilité 10.0 Miles terrestres
Nuages Ciel dégagé
Point de rosée 53 ° F
Humidité 57%
Précipitations 0.05 pouce
Profondeur de la couche neigeuse Non disponible.
UV 1 sur 12
Pollen 8.50 sur 12
Qualité de l'air Non disponible.
Flu Activity Non disponible.
METAR KPUC 230053Z AUTO 07009KT 10SM CLR 21/12 A3001 RMK AO2 RAE2358 SLP105 P0000 T02060117

More Conditions Fewer Conditions

Pression 29.84 pouce
Visibilité 10.0 Miles terrestres
Nuages Ciel dégagé
Point de rosée 53 ° F
Humidité 57%
Précipitations 0.05 pouce
Profondeur de la couche neigeuse Non disponible.
UV 1 sur 12
Pollen 8.50 sur 12
Qualité de l'air Non disponible.
Flu Activity Non disponible.
METAR KPUC 230053Z AUTO 07009KT 10SM CLR 21/12 A3001 RMK AO2 RAE2358 SLP105 P0000 T02060117

More Conditions Fewer Conditions

10-Day Weather Forecast

Almanac

Astronomie

Aug. 22, 2014 Lever Coucher
Temps réel 06:45 MDT 20:12 MDT
Crépuscule civil 06:17 MDT 20:40 MDT
Crépuscule nautique 05:43 MDT 21:14 MDT
Crépuscule astronomique 05:07 MDT 21:50 MDT
Lune 04:11 MDT (8/22) 18:23 MDT (8/22)
Durée de lumière visible 14h 23m
Longueur du jour
13h 26m
Tomorrow will be 2m 23s shorter.
Lune descendante, 6% of the Moon is Illuminated
Aujourd'hui
Lune descendante
août 25
Nouveau
Sep 2
Premier quartier
Sep 8
Pleine lune
Sep 15
Dernier quartier

Extrêmes aujourd'hui

State Highs State Lows

Community

WunderPhotos

Upload Photos

1,746,337 Photos téléchargées !

WunderBlogs® & News

Nearby

Épaisseur de neige

Station Depth Altitude
Cascade Mountain 0 in 7768 ft
Gooseberry R.S. 0 in 7920 ft
Daniels-Strawberry 0 in 8000 ft
Black Flat-U.M. Creek 0 in 9400 ft
Brighton 0 in 8750 ft

Activité sismique

Ville Distance Mag. Time & Date
No recent earthquake activity has been reported nearby.
Minimum magnitude displayed is 2.5.

Températures des eaux côtières

Lieu Température
Aucun rapport de station

Stations météo à proximité